Time;durP1;ratioP1;P1;durP2;ratioP2;P2;SDS_P1;SDS_P2;PMS_P1;PMS_P2;Temp;Humidity;BMP_temperature;BMP_pressure;BME280_temperature;BME280_humidity;BME280_pressure;Samples;Min_cycle;Max_cycle;Signal;HPM_P1;HPM_P2
2022/07/15 00:00:15;;;;;;;2.00;1.70;;;16.60;99.90;;;;;;5020452;28;20633;-60
2022/07/15 00:02:43;;;;;;;2.00;1.43;;;16.40;99.90;;;;;;5019078;28;20438;-57
2022/07/15 00:05:11;;;;;;;2.33;2.13;;;16.50;99.90;;;;;;5018623;28;20468;-58
2022/07/15 00:07:38;;;;;;;1.87;1.57;;;16.60;99.90;;;;;;5018895;28;20792;-56
2022/07/15 00:10:15;;;;;;;4.40;1.93;;;16.70;99.90;;;;;;5018656;28;20481;-58
2022/07/15 00:12:45;;;;;;;2.40;2.20;;;16.60;99.90;;;;;;5018858;28;20765;-58
2022/07/15 00:15:13;;;;;;;1.87;1.67;;;16.40;99.90;;;;;;5019199;28;20728;-58
2022/07/15 00:17:42;;;;;;;6.60;1.87;;;16.40;99.90;;;;;;5018375;28;20426;-58
2022/07/15 00:20:11;;;;;;;6.10;2.30;;;16.30;99.90;;;;;;5018802;28;20607;-57
2022/07/15 00:22:39;;;;;;;3.77;2.10;;;16.30;99.90;;;;;;5020367;28;20446;-59
2022/07/15 00:25:07;;;;;;;2.63;1.90;;;16.20;99.90;;;;;;5019276;28;20433;-57
2022/07/15 00:27:36;;;;;;;1.90;1.70;;;16.00;99.90;;;;;;5018978;28;20621;-57
2022/07/15 00:30:04;;;;;;;3.30;3.00;;;16.00;99.90;;;;;;5019652;28;20470;-58
2022/07/15 00:32:31;;;;;;;5.03;2.17;;;15.90;99.90;;;;;;5022456;28;20449;-55
2022/07/15 00:34:58;;;;;;;2.60;2.40;;;15.90;99.90;;;;;;5022036;28;20449;-58
2022/07/15 00:37:26;;;;;;;1.97;1.87;;;15.90;99.90;;;;;;5022120;28;20457;-59
2022/07/15 00:39:53;;;;;;;2.13;2.00;;;15.70;99.90;;;;;;5021670;28;20445;-56
2022/07/15 00:45:24;;;;;;;2.37;2.17;;;15.90;99.90;;;;;;5021694;28;20794;-55
2022/07/15 00:47:55;;;;;;;1.90;1.70;;;15.90;99.90;;;;;;5021795;28;20436;-58
2022/07/15 00:50:28;;;;;;;2.70;1.70;;;15.80;99.90;;;;;;5021638;28;20473;-58
2022/07/15 00:53:08;;;;;;;3.43;2.63;;;15.70;99.90;;;;;;5021591;28;20602;-56
2022/07/15 00:55:43;;;;;;;5.20;2.60;;;15.70;99.90;;;;;;5021561;28;20629;-59
2022/07/15 00:58:32;;;;;;;3.87;2.67;;;15.60;99.90;;;;;;5021763;28;20447;-58
2022/07/15 01:01:01;;;;;;;3.72;2.95;;;15.50;99.90;;;;;;5021186;28;20461;-57
2022/07/15 01:03:31;;;;;;;3.47;2.88;;;15.40;99.90;;;;;;5021774;28;20409;-56
2022/07/15 01:05:59;;;;;;;3.87;3.47;;;15.20;99.90;;;;;;5021824;28;20290;-59
2022/07/15 01:08:26;;;;;;;4.25;3.90;;;15.10;99.90;;;;;;5021900;28;20440;-54
2022/07/15 01:10:54;;;;;;;3.80;3.40;;;15.00;99.90;;;;;;5021271;28;20267;-54
2022/07/15 01:13:22;;;;;;;4.43;2.70;;;14.90;99.90;;;;;;5021911;28;20209;-58
2022/07/15 01:15:50;;;;;;;4.32;3.35;;;15.10;99.90;;;;;;5023161;28;20205;-54
2022/07/15 01:18:21;;;;;;;4.88;3.28;;;15.00;99.90;;;;;;5020472;28;20201;-56
2022/07/15 01:20:49;;;;;;;2.73;2.53;;;14.90;99.90;;;;;;5021448;28;20257;-58
2022/07/15 01:23:17;;;;;;;4.10;3.20;;;14.90;99.90;;;;;;5021347;28;20444;-58
2022/07/15 01:25:45;;;;;;;4.40;3.60;;;15.00;99.90;;;;;;5021231;28;20476;-58
2022/07/15 01:28:13;;;;;;;5.15;3.75;;;15.10;99.90;;;;;;5021505;28;20210;-58
2022/07/15 01:30:41;;;;;;;3.38;2.83;;;14.90;99.90;;;;;;5020934;28;20302;-58
2022/07/15 01:33:08;;;;;;;3.90;3.60;;;14.70;99.90;;;;;;5021012;28;20199;-57
2022/07/15 01:35:36;;;;;;;5.80;2.55;;;14.70;99.90;;;;;;5021540;28;20281;-58
2022/07/15 01:38:03;;;;;;;3.45;2.70;;;14.70;99.90;;;;;;5021027;28;20225;-58
2022/07/15 01:40:30;;;;;;;2.63;2.42;;;14.50;99.90;;;;;;5020737;28;20237;-56
2022/07/15 01:42:57;;;;;;;3.95;2.78;;;14.40;99.90;;;;;;5020532;28;20202;-59
2022/07/15 01:45:25;;;;;;;3.22;3.03;;;14.30;99.90;;;;;;5021428;28;20389;-58
2022/07/15 01:47:52;;;;;;;2.92;2.58;;;14.40;99.90;;;;;;5020837;28;20253;-57
2022/07/15 01:50:20;;;;;;;4.82;2.63;;;14.50;99.90;;;;;;5020602;28;20237;-58
2022/07/15 01:52:47;;;;;;;3.67;3.38;;;14.40;99.90;;;;;;5020639;28;20451;-58
2022/07/15 01:55:15;;;;;;;3.65;3.30;;;14.50;99.90;;;;;;5020853;28;20266;-58
2022/07/15 01:57:42;;;;;;;3.47;2.42;;;14.40;99.90;;;;;;5020569;28;20198;-58
2022/07/15 02:00:12;;;;;;;7.53;2.97;;;14.30;99.90;;;;;;5020775;28;20224;-58
2022/07/15 02:02:39;;;;;;;2.67;2.40;;;14.10;99.90;;;;;;5020879;28;20216;-57
2022/07/15 02:05:07;;;;;;;2.40;2.20;;;14.10;99.90;;;;;;5020363;28;20396;-57
2022/07/15 02:07:34;;;;;;;2.35;2.08;;;14.00;99.90;;;;;;5020491;28;20267;-57
2022/07/15 02:10:02;;;;;;;1.95;1.67;;;14.00;99.90;;;;;;5020085;28;20407;-58
2022/07/15 02:12:30;;;;;;;3.70;2.00;;;14.00;99.90;;;;;;5020654;28;20390;-59
2022/07/15 02:14:57;;;;;;;2.00;1.90;;;14.10;99.90;;;;;;5020362;28;20409;-57
2022/07/15 02:17:25;;;;;;;1.20;1.10;;;14.00;99.90;;;;;;5020539;28;20213;-57
2022/07/15 02:19:52;;;;;;;4.10;1.95;;;14.00;99.90;;;;;;5020266;28;20201;-59
2022/07/15 02:22:20;;;;;;;3.92;2.30;;;14.00;99.90;;;;;;5020249;28;20431;-59
2022/07/15 02:24:47;;;;;;;3.65;1.48;;;14.00;99.90;;;;;;5019944;28;20203;-59
2022/07/15 02:27:14;;;;;;;3.80;2.33;;;13.90;99.90;;;;;;5020246;28;20499;-58
2022/07/15 02:29:41;;;;;;;4.15;1.60;;;13.90;99.90;;;;;;5019940;28;20202;-60
2022/07/15 02:32:08;;;;;;;4.45;1.92;;;13.90;99.90;;;;;;5020157;28;20218;-58
2022/07/15 02:34:35;;;;;;;3.63;1.70;;;13.90;99.90;;;;;;5021202;28;20205;-58
2022/07/15 02:37:02;;;;;;;3.72;1.90;;;13.90;99.90;;;;;;5020524;28;20201;-59
2022/07/15 02:39:30;;;;;;;2.20;1.17;;;13.80;99.90;;;;;;5020625;28;20400;-59
2022/07/15 02:41:57;;;;;;;1.77;1.67;;;13.80;99.90;;;;;;5019638;28;20229;-57
2022/07/15 02:44:25;;;;;;;5.85;1.80;;;13.80;99.90;;;;;;5020544;28;20243;-58
2022/07/15 02:46:52;;;;;;;1.42;1.33;;;13.70;99.90;;;;;;5020080;28;20209;-56
2022/07/15 02:49:20;;;;;;;2.03;1.50;;;13.70;99.90;;;;;;5020345;28;20214;-58
2022/07/15 02:51:47;;;;;;;10.30;1.30;;;13.70;99.90;;;;;;5019166;28;20233;-58
2022/07/15 02:54:14;;;;;;;4.07;1.70;;;13.80;99.90;;;;;;5019606;28;20232;-60
2022/07/15 02:56:41;;;;;;;2.03;1.60;;;13.70;99.90;;;;;;5019779;28;20205;-60
2022/07/15 02:59:09;;;;;;;1.55;1.45;;;13.70;99.90;;;;;;5019869;28;20198;-59
2022/07/15 03:01:36;;;;;;;1.15;1.05;;;13.60;99.90;;;;;;5019287;28;20228;-59
2022/07/15 03:04:04;;;;;;;1.58;1.42;;;13.60;99.90;;;;;;5019955;28;20231;-58
2022/07/15 03:06:33;;;;;;;1.83;1.20;;;13.60;99.90;;;;;;5019975;28;20235;-58
2022/07/15 03:09:00;;;;;;;1.70;1.60;;;13.60;99.90;;;;;;5019657;28;20276;-55
2022/07/15 03:11:28;;;;;;;1.42;1.33;;;13.50;99.90;;;;;;5019422;28;20229;-56
2022/07/15 03:13:56;;;;;;;2.33;1.50;;;13.60;99.90;;;;;;5019256;28;20203;-58
2022/07/15 03:16:23;;;;;;;2.47;1.02;;;13.60;99.90;;;;;;5019345;28;20203;-60
2022/07/15 03:18:51;;;;;;;1.88;1.40;;;13.70;99.90;;;;;;5019469;28;20244;-59
2022/07/15 03:21:19;;;;;;;1.38;1.27;;;13.70;99.90;;;;;;5019463;28;20224;-59
2022/07/15 03:23:46;;;;;;;3.15;1.50;;;13.70;99.90;;;;;;5019479;28;20201;-59
2022/07/15 03:26:13;;;;;;;1.40;1.30;;;13.70;99.90;;;;;;5019072;28;20212;-59
2022/07/15 03:28:41;;;;;;;3.63;1.27;;;13.70;99.90;;;;;;5019099;28;20365;-59
2022/07/15 03:31:08;;;;;;;5.35;1.60;;;13.70;99.90;;;;;;5019155;28;20452;-59
2022/07/15 03:33:35;;;;;;;1.38;1.27;;;13.80;99.90;;;;;;5019067;28;20213;-59
2022/07/15 03:36:03;;;;;;;2.10;1.60;;;13.80;99.90;;;;;;5019070;28;20454;-58
2022/07/15 03:38:30;;;;;;;3.10;1.80;;;13.90;99.90;;;;;;5019504;28;20198;-59
2022/07/15 03:40:57;;;;;;;2.20;2.00;;;14.30;99.90;;;;;;5019122;28;20248;-57
2022/07/15 03:43:27;;;;;;;2.15;1.40;;;14.70;99.90;;;;;;5019528;28;20202;-57
2022/07/15 03:45:54;;;;;;;1.83;1.20;;;15.20;99.90;;;;;;5019035;28;20199;-56
2022/07/15 03:48:21;;;;;;;2.43;1.00;;;15.70;99.90;;;;;;5019257;28;20437;-58
2022/07/15 03:50:48;;;;;;;1.27;1.17;;;16.10;99.90;;;;;;5039565;22;20550;-51
2022/07/15 03:53:16;;;;;;;2.03;1.80;;;16.50;99.90;;;;;;5000013;28;20434;-52
2022/07/15 03:55:43;;;;;;;1.57;1.10;;;16.70;99.90;;;;;;4999780;28;20490;-50
2022/07/15 03:58:10;;;;;;;1.43;1.33;;;16.60;99.90;;;;;;5000151;28;20780;-49
2022/07/15 04:00:38;;;;;;;1.67;1.50;;;16.60;99.90;;;;;;5000040;28;20431;-49
2022/07/15 04:03:06;;;;;;;1.20;0.90;;;16.50;99.90;;;;;;5000375;28;20427;-51
2022/07/15 04:05:33;;;;;;;2.43;1.33;;;16.30;99.90;;;;;;5001612;28;20507;-50
2022/07/15 04:08:00;;;;;;;1.93;1.73;;;16.40;99.90;;;;;;5003913;28;20432;-54
2022/07/15 04:10:27;;;;;;;4.77;1.53;;;16.50;99.90;;;;;;5005433;28;20723;-51
2022/07/15 04:12:55;;;;;;;4.20;1.30;;;16.40;99.90;;;;;;5005322;28;20631;-47
2022/07/15 04:15:22;;;;;;;2.37;1.53;;;16.30;99.90;;;;;;5005946;28;20606;-54
2022/07/15 04:17:49;;;;;;;1.77;0.90;;;16.10;99.90;;;;;;5004931;28;20849;-54
2022/07/15 04:20:16;;;;;;;5.03;1.30;;;15.90;99.90;;;;;;5004282;28;20441;-52
2022/07/15 04:22:46;;;;;;;1.23;1.10;;;15.70;99.90;;;;;;5004357;28;20494;-48
2022/07/15 04:25:17;;;;;;;1.97;1.60;;;15.60;99.90;;;;;;5004030;28;20837;-47
2022/07/15 04:27:45;;;;;;;2.30;1.10;;;15.50;99.90;;;;;;5003168;28;20435;-48
2022/07/15 04:30:13;;;;;;;2.50;1.10;;;15.50;99.90;;;;;;5003379;28;20503;-49
2022/07/15 04:32:40;;;;;;;3.10;0.90;;;15.50;99.90;;;;;;5003386;28;20446;-47
2022/07/15 04:35:08;;;;;;;2.73;1.70;;;15.50;99.90;;;;;;5003366;28;20774;-51
2022/07/15 04:37:35;;;;;;;1.53;1.43;;;15.50;99.90;;;;;;5002859;28;20445;-48
2022/07/15 04:40:03;;;;;;;8.93;1.90;;;15.50;99.90;;;;;;5003056;28;20432;-49
2022/07/15 04:42:30;;;;;;;5.17;1.60;;;15.50;99.90;;;;;;5003312;28;20522;-49
2022/07/15 04:44:57;;;;;;;1.73;1.17;;;15.60;99.90;;;;;;5003181;28;20441;-49
2022/07/15 04:47:24;;;;;;;1.47;1.37;;;15.70;99.90;;;;;;5002982;28;20434;-49
2022/07/15 04:52:42;;;;;;;1.17;1.00;;;15.80;99.90;;;;;;5002881;28;20466;-49
2022/07/15 04:55:10;;;;;;;1.90;1.20;;;15.80;99.90;;;;;;5002828;28;20612;-50
2022/07/15 04:57:38;;;;;;;3.97;1.43;;;15.80;99.90;;;;;;5003264;28;20444;-49
2022/07/15 05:00:06;;;;;;;3.80;1.40;;;15.90;99.90;;;;;;5002815;28;20820;-52
2022/07/15 05:02:37;;;;;;;3.37;1.90;;;16.00;99.90;;;;;;5003089;28;20458;-48
2022/07/15 05:05:07;;;;;;;2.13;1.23;;;16.10;99.90;;;;;;5002832;28;20439;-51
2022/07/15 05:07:35;;;;;;;3.33;1.20;;;16.10;99.90;;;;;;5002866;28;20833;-52
2022/07/15 05:10:03;;;;;;;2.20;1.27;;;16.20;99.90;;;;;;5002697;28;20436;-51
2022/07/15 05:12:30;;;;;;;3.43;2.20;;;16.20;99.90;;;;;;5002379;28;20477;-47
2022/07/15 05:14:58;;;;;;;1.70;0.87;;;16.30;99.90;;;;;;5002208;28;20431;-52
2022/07/15 05:17:26;;;;;;;1.23;1.07;;;16.40;99.90;;;;;;5002091;28;20923;-51
2022/07/15 05:19:53;;;;;;;1.40;1.30;;;16.50;99.90;;;;;;5001869;28;20431;-48
2022/07/15 05:22:21;;;;;;;2.60;1.30;;;16.60;99.90;;;;;;5002190;28;20455;-50
2022/07/15 05:24:49;;;;;;;2.90;2.10;;;16.60;99.90;;;;;;5002100;28;20504;-46
2022/07/15 05:27:16;;;;;;;2.00;1.23;;;16.60;99.90;;;;;;5002160;28;20431;-51
2022/07/15 05:29:44;;;;;;;2.07;1.50;;;16.70;99.90;;;;;;5002130;28;20438;-48
2022/07/15 05:32:12;;;;;;;1.27;1.17;;;16.80;99.90;;;;;;4984681;28;20494;-47
2022/07/15 05:34:40;;;;;;;1.83;1.30;;;17.00;99.90;;;;;;5002018;28;20753;-48
2022/07/15 05:37:10;;;;;;;1.67;1.10;;;17.00;99.90;;;;;;5002301;28;20438;-48
2022/07/15 05:39:53;;;;;;;2.10;0.90;;;17.00;99.90;;;;;;5002014;28;20500;-49
2022/07/15 05:42:24;;;;;;;1.77;0.90;;;17.20;99.90;;;;;;4984785;28;20462;-52
2022/07/15 05:44:51;;;;;;;1.53;1.10;;;17.20;99.90;;;;;;5001787;28;20634;-54
2022/07/15 05:47:18;;;;;;;1.57;1.10;;;17.20;99.90;;;;;;5002351;28;20815;-48
2022/07/15 05:49:46;;;;;;;1.13;1.03;;;17.20;99.90;;;;;;5002020;28;20515;-48
2022/07/15 05:52:14;;;;;;;2.50;1.33;;;17.40;99.90;;;;;;5001380;28;20490;-47
2022/07/15 05:54:41;;;;;;;1.30;1.20;;;17.60;99.90;;;;;;5002137;28;20454;-50
2022/07/15 05:57:08;;;;;;;1.77;1.23;;;17.70;99.90;;;;;;5002119;28;20529;-51
2022/07/15 05:59:35;;;;;;;1.03;0.93;;;17.90;99.90;;;;;;5002028;28;20448;-47
2022/07/15 06:02:02;;;;;;;3.47;1.50;;;17.80;99.90;;;;;;5001562;28;20458;-49
2022/07/15 06:04:30;;;;;;;1.00;0.70;;;17.90;99.90;;;;;;5002018;28;20481;-49
2022/07/15 06:06:57;;;;;;;0.83;0.83;;;18.00;99.90;;;;;;5001433;28;20611;-51
2022/07/15 06:09:24;;;;;;;1.17;1.00;;;18.10;99.90;;;;;;5001570;28;20450;-49
2022/07/15 06:11:52;;;;;;;3.50;1.20;;;17.90;99.90;;;;;;5000934;28;20486;-48
2022/07/15 06:14:19;;;;;;;2.97;1.00;;;17.80;99.90;;;;;;4993785;28;20434;-50
2022/07/15 06:16:47;;;;;;;2.00;1.40;;;18.00;99.90;;;;;;4997586;28;20440;-48
2022/07/15 06:19:15;;;;;;;1.43;1.30;;;18.30;99.90;;;;;;5001452;28;20432;-53
2022/07/15 06:21:42;;;;;;;0.70;0.70;;;18.60;99.90;;;;;;5001241;28;20823;-47
2022/07/15 06:24:09;;;;;;;0.80;0.80;;;18.90;99.90;;;;;;5000304;28;20919;-49
2022/07/15 06:26:36;;;;;;;1.00;0.87;;;19.30;99.90;;;;;;5015936;28;20677;-51
2022/07/15 06:29:03;;;;;;;2.67;1.60;;;19.60;99.90;;;;;;5003692;28;20671;-47
2022/07/15 06:31:31;;;;;;;1.27;1.17;;;20.10;99.90;;;;;;5001009;28;20475;-54
2022/07/15 06:34:02;;;;;;;1.10;1.00;;;20.50;99.90;;;;;;5000225;28;20557;-53
2022/07/15 06:36:29;;;;;;;1.53;0.93;;;20.40;99.90;;;;;;4992405;28;20412;-48
2022/07/15 06:38:59;;;;;;;2.13;1.13;;;20.30;99.90;;;;;;4989176;28;20440;-47
2022/07/15 06:41:28;;;;;;;3.50;1.00;;;20.30;99.90;;;;;;4992003;28;20823;-48
2022/07/15 06:43:57;;;;;;;1.17;1.00;;;20.50;99.90;;;;;;4988923;28;20460;-53
2022/07/15 06:46:25;;;;;;;1.13;0.90;;;20.50;99.90;;;;;;4981328;28;20443;-51
2022/07/15 06:48:53;;;;;;;2.50;1.10;;;20.90;99.90;;;;;;4980913;28;20466;-51
2022/07/15 06:51:20;;;;;;;4.00;1.87;;;21.30;99.90;;;;;;4980866;28;20597;-51
2022/07/15 06:53:51;;;;;;;1.27;1.10;;;21.60;99.90;;;;;;4981223;28;20439;-48
2022/07/15 06:56:21;;;;;;;4.00;1.13;;;21.90;99.90;;;;;;4980821;28;20414;-50
2022/07/15 06:58:49;;;;;;;1.33;0.70;;;21.90;99.90;;;;;;4996111;28;20431;-45
2022/07/15 07:01:16;;;;;;;1.53;0.80;;;22.00;99.90;;;;;;4999922;28;20436;-48
2022/07/15 07:03:44;;;;;;;2.83;1.53;;;22.40;99.90;;;;;;5000453;28;20445;-48
2022/07/15 07:06:26;;;;;;;0.87;0.87;;;23.20;99.90;;;;;;5000166;28;20787;-50
2022/07/15 07:08:54;;;;;;;5.67;1.67;;;23.20;99.90;;;;;;5000256;28;20735;-49
2022/07/15 07:11:21;;;;;;;2.87;1.27;;;24.00;99.90;;;;;;4999916;28;20463;-52
2022/07/15 07:13:50;;;;;;;2.60;1.60;;;24.80;99.90;;;;;;4991917;28;20421;-49
2022/07/15 07:16:18;;;;;;;3.40;1.20;;;25.90;99.90;;;;;;4991447;28;20411;-53
2022/07/15 07:18:47;;;;;;;2.40;1.00;;;27.10;98.80;;;;;;4991944;28;20407;-53
2022/07/15 07:21:15;;;;;;;1.50;1.00;;;28.30;96.50;;;;;;4989398;28;20826;-54
2022/07/15 07:23:44;;;;;;;2.80;1.63;;;27.40;96.00;;;;;;4991176;28;20437;-49
2022/07/15 07:26:14;;;;;;;1.20;1.10;;;27.90;95.00;;;;;;4994334;28;20625;-48
2022/07/15 07:28:41;;;;;;;3.40;1.30;;;28.80;92.90;;;;;;4991378;28;20439;-51
2022/07/15 07:31:12;;;;;;;2.70;1.23;;;27.30;94.70;;;;;;4989645;28;20517;-52
2022/07/15 07:33:40;;;;;;;1.50;1.40;;;26.40;95.40;;;;;;4990140;28;20744;-52
2022/07/15 07:36:09;;;;;;;1.37;1.27;;;27.70;93.40;;;;;;4990965;28;20472;-49
2022/07/15 07:38:37;;;;;;;1.20;1.10;;;29.40;90.70;;;;;;4990740;28;20601;-50
2022/07/15 07:41:05;;;;;;;3.73;1.03;;;31.00;85.90;;;;;;4992998;28;20437;-47
2022/07/15 07:43:32;;;;;;;2.70;1.53;;;31.40;79.90;;;;;;4995367;28;20531;-49
2022/07/15 07:45:59;;;;;;;1.90;0.90;;;32.10;76.90;;;;;;4993882;28;20540;-49
2022/07/15 07:48:27;;;;;;;0.97;0.90;;;30.70;76.40;;;;;;4992921;28;20433;-51
2022/07/15 07:50:54;;;;;;;3.07;1.20;;;30.60;76.10;;;;;;4992577;28;20856;-51
2022/07/15 07:53:21;;;;;;;2.73;1.50;;;30.70;74.60;;;;;;4993740;28;20430;-50
2022/07/15 07:55:50;;;;;;;1.97;1.43;;;29.20;76.70;;;;;;4994457;28;20438;-50
2022/07/15 07:58:17;;;;;;;7.30;1.67;;;29.90;75.30;;;;;;4994228;28;20436;-48
2022/07/15 08:00:44;;;;;;;1.40;1.23;;;31.60;72.40;;;;;;4993797;28;20816;-52
2022/07/15 08:03:12;;;;;;;1.70;1.47;;;31.20;69.70;;;;;;4992045;28;20528;-53
2022/07/15 08:05:40;;;;;;;1.17;1.00;;;28.90;73.20;;;;;;4993055;28;20470;-52
2022/07/15 08:08:08;;;;;;;1.30;0.97;;;29.90;70.90;;;;;;4993735;28;20794;-51
2022/07/15 08:10:36;;;;;;;3.00;1.60;;;29.20;73.20;;;;;;4995176;28;20439;-48
2022/07/15 08:13:09;;;;;;;2.40;1.07;;;27.80;76.70;;;;;;5003504;28;20473;-49
2022/07/15 08:15:38;;;;;;;2.20;1.10;;;26.20;82.80;;;;;;5002980;28;20416;-51
2022/07/15 08:18:05;;;;;;;1.63;1.40;;;24.70;89.10;;;;;;5003345;28;20454;-49
2022/07/15 08:20:33;;;;;;;1.07;0.97;;;25.30;88.40;;;;;;5002548;28;20438;-50
2022/07/15 08:23:04;;;;;;;1.47;0.97;;;26.70;82.20;;;;;;5003133;28;20444;-51
2022/07/15 08:25:33;;;;;;;0.80;0.80;;;28.70;75.40;;;;;;5002872;28;20441;-52
2022/07/15 08:28:01;;;;;;;1.07;1.00;;;30.40;70.70;;;;;;5002817;28;20808;-50
2022/07/15 08:30:29;;;;;;;0.70;0.70;;;30.70;67.80;;;;;;5003151;28;20457;-49
2022/07/15 08:32:57;;;;;;;0.80;0.70;;;28.50;71.70;;;;;;5002719;28;20503;-54
2022/07/15 08:35:26;;;;;;;1.40;1.10;;;26.20;76.60;;;;;;5003202;28;20459;-53
2022/07/15 08:37:54;;;;;;;1.73;0.80;;;25.20;81.60;;;;;;5003071;28;20465;-51
2022/07/15 08:40:23;;;;;;;4.83;1.63;;;26.20;81.80;;;;;;5003120;28;20427;-52
2022/07/15 08:42:54;;;;;;;5.20;1.10;;;29.50;76.10;;;;;;5002870;28;20434;-52
2022/07/15 08:45:21;;;;;;;1.57;1.47;;;33.60;66.80;;;;;;5002830;28;20410;-51
2022/07/15 08:47:57;;;;;;;1.57;1.13;;;33.70;62.70;;;;;;5002511;28;20762;-50
2022/07/15 08:50:24;;;;;;;1.97;1.17;;;32.10;64.10;;;;;;5002066;28;20499;-49
2022/07/15 08:52:52;;;;;;;2.00;1.03;;;30.10;67.50;;;;;;5002029;28;20535;-52
2022/07/15 08:55:19;;;;;;;3.27;1.27;;;27.80;70.80;;;;;;5002347;28;20494;-50
2022/07/15 08:57:49;;;;;;;2.20;1.03;;;25.90;76.40;;;;;;5002979;28;20444;-49
2022/07/15 09:00:18;;;;;;;2.83;1.40;;;26.80;75.30;;;;;;5002051;28;20406;-50
2022/07/15 09:02:46;;;;;;;0.83;0.83;;;27.60;72.50;;;;;;5002241;28;20501;-50
2022/07/15 09:05:23;;;;;;;1.00;0.90;;;29.20;66.70;;;;;;5000782;28;20410;-50
2022/07/15 09:07:53;;;;;;;2.10;1.10;;;28.90;64.60;;;;;;5001967;28;20562;-47
2022/07/15 09:10:43;;;;;;;2.10;0.90;;;28.90;66.40;;;;;;5001248;28;20616;-50
2022/07/15 09:13:24;;;;;;;3.33;1.00;;;27.50;69.70;;;;;;5001407;28;20540;-49
2022/07/15 09:15:52;;;;;;;1.07;0.87;;;26.40;75.00;;;;;;5001669;28;20502;-51
2022/07/15 09:18:22;;;;;;;2.70;1.10;;;25.00;76.60;;;;;;5001691;28;20601;-51
2022/07/15 09:20:51;;;;;;;1.30;0.80;;;24.00;78.10;;;;;;5001718;28;20511;-50
2022/07/15 09:23:29;;;;;;;4.90;1.27;;;25.40;75.40;;;;;;5001936;28;20743;-52
2022/07/15 09:26:16;;;;;;;2.80;1.47;;;27.90;69.80;;;;;;5001415;28;20605;-52
2022/07/15 09:28:45;;;;;;;3.13;0.90;;;27.30;68.40;;;;;;5001515;28;20438;-50
2022/07/15 09:34:02;;;;;;;3.27;1.30;;;24.30;76.30;;;;;;5001637;28;20754;-51
2022/07/15 09:36:31;;;;;;;0.80;0.80;;;23.50;79.40;;;;;;5001412;28;20429;-47
2022/07/15 09:39:02;;;;;;;1.83;0.97;;;23.90;78.30;;;;;;5001707;28;20489;-47
2022/07/15 09:41:37;;;;;;;1.07;0.87;;;24.70;76.40;;;;;;5001603;28;20509;-50
2022/07/15 09:44:10;;;;;;;2.27;1.03;;;25.10;76.20;;;;;;5000851;28;20485;-53
2022/07/15 09:47:01;;;;;;;1.87;0.60;;;24.30;76.20;;;;;;4983931;28;20501;-50
2022/07/15 09:49:29;;;;;;;2.63;1.03;;;23.80;77.70;;;;;;5001375;28;20821;-51
2022/07/15 09:52:01;;;;;;;1.53;1.00;;;23.50;77.20;;;;;;5028219;22;20528;-61
2022/07/15 09:54:31;;;;;;;0.60;0.60;;;23.50;78.90;;;;;;5019441;28;20405;-61
2022/07/15 09:57:01;;;;;;;5.07;1.07;;;23.20;78.10;;;;;;5021350;28;20461;-57
2022/07/15 09:59:29;;;;;;;1.40;1.30;;;22.70;80.20;;;;;;5021047;28;20429;-58
2022/07/15 10:01:57;;;;;;;2.23;0.87;;;22.80;80.00;;;;;;5018802;28;20436;-59
2022/07/15 10:04:26;;;;;;;0.80;0.80;;;23.00;79.60;;;;;;5020132;28;20420;-58
2022/07/15 10:06:55;;;;;;;0.70;0.70;;;23.10;77.60;;;;;;5020714;28;20493;-61
2022/07/15 10:09:44;;;;;;;1.20;0.77;;;23.10;78.50;;;;;;5020690;28;20633;-56
2022/07/15 10:12:26;;;;;;;2.03;1.00;;;23.00;79.50;;;;;;5020029;28;20661;-60
2022/07/15 10:15:23;;;;;;;2.03;1.13;;;23.00;78.20;;;;;;5020491;28;20406;-59
2022/07/15 10:18:11;;;;;;;4.23;0.77;;;22.60;79.60;;;;;;5019880;28;20497;-60
2022/07/15 10:20:54;;;;;;;1.20;1.10;;;22.40;80.70;;;;;;5020583;28;20778;-59
2022/07/15 10:23:45;;;;;;;1.73;1.23;;;22.40;80.50;;;;;;5019617;28;20433;-60
2022/07/15 10:26:27;;;;;;;1.27;0.97;;;22.90;81.10;;;;;;5019638;28;20449;-59
2022/07/15 10:28:58;;;;;;;0.70;0.70;;;23.40;80.50;;;;;;5018608;28;20442;-58
2022/07/15 10:31:28;;;;;;;3.47;1.47;;;23.50;79.30;;;;;;5019916;28;20513;-60
2022/07/15 10:34:07;;;;;;;4.90;1.47;;;23.10;81.10;;;;;;5019583;28;20445;-61
2022/07/15 10:36:47;;;;;;;1.17;1.07;;;23.10;81.10;;;;;;5020124;28;20828;-58
2022/07/15 10:39:16;;;;;;;1.27;1.17;;;22.20;81.20;;;;;;5020062;28;20473;-57
2022/07/15 10:41:48;;;;;;;2.70;1.00;;;21.60;82.90;;;;;;5020081;28;20448;-57
2022/07/15 10:44:16;;;;;;;0.87;0.83;;;21.70;84.50;;;;;;5018492;28;20438;-59
2022/07/15 10:46:44;;;;;;;0.70;0.70;;;22.20;80.10;;;;;;5019026;28;20412;-57
2022/07/15 10:49:11;;;;;;;2.97;1.10;;;22.70;79.40;;;;;;5020041;28;20645;-57
2022/07/15 10:51:39;;;;;;;2.93;1.30;;;23.30;78.40;;;;;;5018571;28;20806;-60
2022/07/15 10:54:09;;;;;;;1.83;1.10;;;24.10;76.70;;;;;;5018169;28;20693;-59
2022/07/15 10:56:41;;;;;;;0.80;0.80;;;23.90;76.80;;;;;;5019701;28;20454;-59
2022/07/15 10:59:11;;;;;;;3.83;1.20;;;23.40;79.10;;;;;;5019485;28;20498;-58
2022/07/15 11:01:40;;;;;;;0.90;0.90;;;23.10;80.30;;;;;;5019683;28;20421;-59
2022/07/15 11:04:17;;;;;;;1.90;1.37;;;23.50;80.10;;;;;;5019398;28;20731;-60
2022/07/15 11:07:03;;;;;;;1.87;1.00;;;23.70;78.80;;;;;;5018709;28;20489;-59
2022/07/15 11:09:52;;;;;;;2.27;1.43;;;23.20;81.10;;;;;;5020342;28;20400;-58
2022/07/15 11:12:30;;;;;;;5.63;1.00;;;22.80;81.80;;;;;;5020034;28;20453;-59
2022/07/15 11:15:06;;;;;;;1.93;1.23;;;22.80;81.80;;;;;;5019161;28;20429;-56
2022/07/15 11:17:33;;;;;;;1.13;1.03;;;22.90;79.50;;;;;;5019666;28;20407;-60
2022/07/15 11:20:10;;;;;;;1.53;1.13;;;22.70;79.20;;;;;;5019634;28;20608;-58
2022/07/15 11:22:41;;;;;;;1.63;1.10;;;22.30;82.50;;;;;;5019799;28;20636;-58
2022/07/15 11:25:21;;;;;;;2.80;1.20;;;22.30;83.30;;;;;;5019750;28;20685;-58
2022/07/15 11:28:11;;;;;;;4.23;1.60;;;22.20;84.30;;;;;;5018354;28;20401;-57
2022/07/15 11:30:49;;;;;;;0.90;0.80;;;22.30;83.10;;;;;;5019841;28;20408;-58
2022/07/15 11:33:17;;;;;;;1.63;0.80;;;22.20;84.30;;;;;;5020209;28;20474;-60
2022/07/15 11:35:52;;;;;;;3.60;0.90;;;21.90;82.10;;;;;;5021735;28;20476;-59
2022/07/15 11:38:23;;;;;;;1.73;1.33;;;22.20;82.60;;;;;;5022112;28;20483;-58
2022/07/15 11:46:50;;;;;;;0.83;0.80;;;23.30;78.20;;;;;;5019460;28;20426;-58
2022/07/15 11:49:32;;;;;;;1.83;1.07;;;23.20;79.10;;;;;;5019306;28;20444;-59
2022/07/15 11:52:01;;;;;;;1.03;0.97;;;22.80;80.80;;;;;;5019088;28;20482;-58
2022/07/15 11:54:29;;;;;;;1.53;1.03;;;22.60;83.10;;;;;;5019825;28;20449;-56
2022/07/15 11:56:59;;;;;;;1.83;1.03;;;22.60;84.00;;;;;;5019287;28;20452;-60
2022/07/15 11:59:27;;;;;;;2.27;1.43;;;22.80;84.10;;;;;;5019051;28;20538;-60
2022/07/15 12:02:06;;;;;;;2.13;1.93;;;22.90;82.10;;;;;;5019539;28;20425;-58
2022/07/15 12:04:34;;;;;;;1.30;1.17;;;22.80;82.50;;;;;;5019128;28;20509;-59
2022/07/15 12:07:02;;;;;;;0.97;0.90;;;22.70;81.60;;;;;;5019327;28;20437;-58
2022/07/15 12:09:47;;;;;;;0.87;0.70;;;22.60;81.00;;;;;;5018883;28;20458;-59
2022/07/15 12:12:15;;;;;;;1.47;1.27;;;22.40;81.40;;;;;;5018862;28;20508;-58
2022/07/15 12:14:46;;;;;;;1.40;0.97;;;22.30;82.20;;;;;;5019053;28;20440;-61
2022/07/15 12:17:15;;;;;;;1.33;1.07;;;22.40;81.40;;;;;;5019115;28;20501;-59
2022/07/15 12:19:48;;;;;;;1.90;1.30;;;22.80;82.20;;;;;;5019118;28;20476;-61
2022/07/15 12:22:16;;;;;;;2.87;0.97;;;23.10;80.20;;;;;;5018657;28;20421;-59
2022/07/15 12:24:52;;;;;;;3.73;1.50;;;23.20;80.10;;;;;;5019137;28;20753;-59
2022/07/15 12:27:34;;;;;;;1.60;1.00;;;23.30;80.40;;;;;;5022054;28;20447;-58
2022/07/15 12:30:07;;;;;;;2.30;2.07;;;23.60;79.20;;;;;;5022537;28;20431;-59
2022/07/15 12:32:36;;;;;;;0.90;0.87;;;23.40;79.70;;;;;;5022660;28;20448;-58
2022/07/15 12:35:05;;;;;;;1.40;1.30;;;23.30;80.70;;;;;;5022928;28;20431;-58
2022/07/15 12:37:33;;;;;;;2.57;1.13;;;23.40;80.70;;;;;;5022744;28;20429;-58
2022/07/15 12:40:06;;;;;;;1.07;0.97;;;23.60;78.90;;;;;;5022186;28;20450;-59
2022/07/15 12:42:44;;;;;;;1.40;1.00;;;24.20;77.90;;;;;;5025016;28;20455;-58
2022/07/15 12:45:16;;;;;;;1.90;0.90;;;24.30;74.70;;;;;;5024007;28;20533;-59
2022/07/15 12:48:16;;;;;;;1.30;1.20;;;24.20;74.80;;;;;;5021955;28;20628;-60
2022/07/15 12:50:46;;;;;;;2.67;1.00;;;24.40;75.40;;;;;;5022503;28;20413;-58
2022/07/15 12:53:26;;;;;;;1.30;0.97;;;24.40;75.40;;;;;;5021655;28;20474;-59
2022/07/15 12:55:59;;;;;;;1.30;1.20;;;23.90;75.80;;;;;;5022185;28;20673;-58
2022/07/15 12:58:28;;;;;;;1.23;1.10;;;23.70;77.10;;;;;;5022019;28;20464;-59
2022/07/15 13:01:16;;;;;;;0.90;0.77;;;23.60;77.50;;;;;;5021942;28;20497;-58
2022/07/15 13:03:43;;;;;;;2.60;0.97;;;23.80;78.50;;;;;;5021778;28;20430;-58
2022/07/15 13:06:14;;;;;;;2.20;1.10;;;23.60;76.40;;;;;;5020840;28;20669;-59
2022/07/15 13:08:42;;;;;;;1.00;0.80;;;23.30;76.90;;;;;;5022147;28;20484;-57
2022/07/15 13:11:09;;;;;;;1.77;1.07;;;23.40;76.40;;;;;;5021204;28;20442;-59
2022/07/15 13:13:39;;;;;;;1.60;0.93;;;23.40;76.30;;;;;;5021585;28;20444;-60
2022/07/15 13:16:06;;;;;;;7.63;1.67;;;23.40;76.00;;;;;;5021699;28;20589;-58